Time;durP1;ratioP1;P1;durP2;ratioP2;P2;SDS_P1;SDS_P2;PMS_P1;PMS_P2;Temp;Humidity;BMP_temperature;BMP_pressure;BME280_temperature;BME280_humidity;BME280_pressure;Samples;Min_cycle;Max_cycle;Signal;HPM_P1;HPM_P2
2022/09/16 00:00:57;;;;;;;;;;;13.40;99.90;;;;;;5007825;28;19914;-79
2022/09/16 00:03:23;;;;;;;;;;;13.40;99.90;;;;;;5002320;28;19920;-79
2022/09/16 00:05:50;;;;;;;;;;;13.50;99.90;;;;;;4997851;28;19920;-79
2022/09/16 00:08:16;;;;;;;;;;;13.40;99.90;;;;;;5001211;28;19918;-79
2022/09/16 00:10:42;;;;;;;;;;;13.40;99.90;;;;;;4999257;28;19928;-79
2022/09/16 00:13:09;;;;;;;;;;;13.40;99.90;;;;;;4989371;28;19964;-79
2022/09/16 00:15:34;;;;;;;;;;;13.40;99.90;;;;;;5001819;28;20363;-79
2022/09/16 00:18:00;;;;;;;;;;;13.40;99.90;;;;;;5000937;28;19922;-79
2022/09/16 00:20:26;;;;;;;;;;;13.40;99.90;;;;;;5015943;28;19960;-79
2022/09/16 00:22:51;;;;;;;;;;;13.40;99.90;;;;;;5013055;28;19924;-79
2022/09/16 00:25:17;;;;;;;;;;;13.50;99.90;;;;;;5012067;28;20295;-78
2022/09/16 00:27:42;;;;;;;;;;;13.50;99.90;;;;;;4999395;28;19914;-79
2022/09/16 00:30:08;;;;;;;;;;;13.50;99.90;;;;;;5000678;28;19937;-78
2022/09/16 00:32:34;;;;;;;;;;;13.50;99.90;;;;;;4994792;28;20456;-78
2022/09/16 00:34:59;;;;;;;;;;;13.50;99.90;;;;;;4989016;28;19918;-77
2022/09/16 00:37:25;;;;;;;;;;;13.50;99.90;;;;;;5008337;28;20008;-77
2022/09/16 00:39:51;;;;;;;;;;;13.50;99.90;;;;;;4995191;28;20737;-78
2022/09/16 00:42:17;;;;;;;;;;;13.50;99.90;;;;;;4998441;28;19992;-77
2022/09/16 00:44:56;;;;;;;;;;;13.50;99.90;;;;;;5000297;28;19913;-78
2022/09/16 00:47:25;;;;;;;;;;;13.50;99.90;;;;;;4999616;28;19960;-78
2022/09/16 00:49:52;;;;;;;;;;;13.50;99.90;;;;;;5001599;28;19933;-77
2022/09/16 00:52:18;;;;;;;;;;;13.50;99.90;;;;;;4995975;28;19921;-78
2022/09/16 00:54:44;;;;;;;;;;;13.50;99.90;;;;;;5008302;28;19922;-77
2022/09/16 00:57:10;;;;;;;;;;;13.50;99.90;;;;;;4998469;28;19922;-78
2022/09/16 00:59:41;;;;;;;;;;;13.60;99.90;;;;;;4999124;28;19914;-78
2022/09/16 01:02:09;;;;;;;;;;;13.60;99.90;;;;;;4994213;28;19987;-77
2022/09/16 01:04:37;;;;;;;;;;;13.50;99.90;;;;;;5000819;28;19921;-79
2022/09/16 01:07:03;;;;;;;;;;;13.50;99.90;;;;;;4998752;28;20393;-79
2022/09/16 01:09:29;;;;;;;;;;;13.50;99.90;;;;;;4998850;28;19914;-77
2022/09/16 01:11:55;;;;;;;;;;;13.50;99.90;;;;;;4999882;28;19924;-79
2022/09/16 01:17:25;;;;;;;;;;;13.50;99.90;;;;;;4999752;28;19944;-79
2022/09/16 01:20:09;;;;;;;;;;;13.50;99.90;;;;;;4993190;28;20052;-78
2022/09/16 01:22:57;;;;;;;;;;;13.50;99.90;;;;;;4997417;28;19920;-78
2022/09/16 01:25:26;;;;;;;;;;;13.40;99.90;;;;;;4997284;28;19914;-79
2022/09/16 01:28:06;;;;;;;;;;;13.40;99.90;;;;;;4996969;28;19936;-79
2022/09/16 01:30:44;;;;;;;;;;;13.40;99.90;;;;;;4995778;28;19941;-79
2022/09/16 01:33:20;;;;;;;;;;;13.40;99.90;;;;;;4994992;28;19922;-78
2022/09/16 01:35:54;;;;;;;;;;;13.30;99.90;;;;;;4996399;28;19918;-79
2022/09/16 01:38:39;;;;;;;;;;;13.30;99.90;;;;;;4995775;28;19914;-78
2022/09/16 01:41:14;;;;;;;;;;;13.30;99.90;;;;;;5010443;28;19945;-78
2022/09/16 01:43:55;;;;;;;;;;;13.30;99.90;;;;;;4996888;28;19917;-78
2022/09/16 01:46:39;;;;;;;;;;;13.20;99.90;;;;;;4990635;28;19917;-79
2022/09/16 01:49:04;;;;;;;;;;;13.20;99.90;;;;;;5013805;28;19918;-79
2022/09/16 01:51:30;;;;;;;;;;;13.20;99.90;;;;;;4996638;28;20516;-78
2022/09/16 01:53:59;;;;;;;;;;;13.20;99.90;;;;;;4994855;28;19924;-79
2022/09/16 01:56:53;;;;;;;;;;;13.10;99.90;;;;;;4999183;28;19913;-78
2022/09/16 01:59:25;;;;;;;;;;;13.10;99.90;;;;;;4990797;28;20037;-79
2022/09/16 02:02:01;;;;;;;;;;;13.20;99.90;;;;;;4993989;28;20337;-79
2022/09/16 02:04:30;;;;;;;;;;;13.10;99.90;;;;;;5010966;28;19976;-79
2022/09/16 02:06:57;;;;;;;;;;;13.10;99.90;;;;;;4998786;28;19996;-79
2022/09/16 02:09:26;;;;;;;;;;;13.10;99.90;;;;;;4997586;28;19968;-79
2022/09/16 02:11:53;;;;;;;;;;;13.10;99.90;;;;;;4998466;28;20448;-78
2022/09/16 02:14:27;;;;;;;;;;;13.10;99.90;;;;;;5009705;28;19991;-78
2022/09/16 02:16:55;;;;;;;;;;;13.10;99.90;;;;;;4995873;28;19914;-79
2022/09/16 02:19:23;;;;;;;;;;;13.10;99.90;;;;;;5000164;28;19914;-79
2022/09/16 02:21:50;;;;;;;;;;;13.10;99.90;;;;;;4991123;28;20326;-79
2022/09/16 02:24:17;;;;;;;;;;;13.10;99.90;;;;;;4993114;28;19936;-77
2022/09/16 02:26:45;;;;;;;;;;;13.10;99.90;;;;;;4988233;28;20049;-78
2022/09/16 02:29:14;;;;;;;;;;;13.10;99.90;;;;;;4991412;28;19976;-78
2022/09/16 02:31:40;;;;;;;;;;;13.10;99.90;;;;;;4987161;28;19965;-78
2022/09/16 02:34:13;;;;;;;;;;;13.10;99.90;;;;;;4994251;28;19917;-77
2022/09/16 02:36:41;;;;;;;;;;;13.10;99.90;;;;;;4992001;28;19922;-78
2022/09/16 02:39:08;;;;;;;;;;;13.10;99.90;;;;;;4992364;28;21846;-78
2022/09/16 02:41:34;;;;;;;;;;;13.10;99.90;;;;;;4995386;28;20020;-78
2022/09/16 02:44:00;;;;;;;;;;;13.10;99.90;;;;;;4993152;28;19993;-79
2022/09/16 02:46:55;;;;;;;;;;;13.10;99.90;;;;;;5019567;23;19942;-77
2022/09/16 02:49:20;;;;;;;;;;;13.10;99.90;;;;;;4963316;28;19930;-76
2022/09/16 02:52:04;;;;;;;;;;;13.10;99.90;;;;;;4970848;28;19914;-76
2022/09/16 02:54:30;;;;;;;;;;;13.10;99.90;;;;;;4969703;28;19918;-76
2022/09/16 02:56:56;;;;;;;;;;;13.10;99.90;;;;;;4968925;28;19969;-77
2022/09/16 02:59:22;;;;;;;;;;;13.00;99.90;;;;;;4967644;28;19915;-76
2022/09/16 03:01:48;;;;;;;;;;;13.00;99.90;;;;;;4966652;28;19922;-77
2022/09/16 03:04:15;;;;;;;;;;;13.00;99.90;;;;;;4973130;28;19914;-77
2022/09/16 03:06:41;;;;;;;;;;;13.00;99.90;;;;;;4970883;28;19925;-77
2022/09/16 03:09:11;;;;;;;;;;;13.00;99.90;;;;;;4985474;28;19914;-77
2022/09/16 03:11:46;;;;;;;;;;;13.00;99.90;;;;;;4971729;28;19921;-77
2022/09/16 03:14:14;;;;;;;;;;;12.90;99.90;;;;;;4966856;28;20042;-77
2022/09/16 03:16:48;;;;;;;;;;;13.00;99.90;;;;;;4970022;28;20260;-77
2022/09/16 03:19:17;;;;;;;;;;;13.00;99.90;;;;;;4966930;28;20004;-77
2022/09/16 03:22:01;;;;;;;;;;;12.90;99.90;;;;;;4970949;28;20379;-77
2022/09/16 03:24:48;;;;;;;;;;;13.00;99.90;;;;;;4973485;28;19915;-77
2022/09/16 03:27:22;;;;;;;;;;;13.00;99.90;;;;;;4988645;28;20389;-76
2022/09/16 03:29:50;;;;;;;;;;;12.90;99.90;;;;;;4977575;28;19914;-78
2022/09/16 03:32:21;;;;;;;;;;;13.00;99.90;;;;;;4971931;28;20418;-77
2022/09/16 03:34:47;;;;;;;;;;;13.00;99.90;;;;;;4968380;28;19937;-77
2022/09/16 03:37:14;;;;;;;;;;;13.00;99.90;;;;;;4985706;28;19938;-77
2022/09/16 03:39:40;;;;;;;;;;;13.00;99.90;;;;;;4975868;28;19914;-78
2022/09/16 03:42:08;;;;;;;;;;;13.10;99.90;;;;;;4974382;28;19911;-78
2022/09/16 03:44:34;;;;;;;;;;;13.10;99.90;;;;;;4977935;28;19914;-76
2022/09/16 03:47:00;;;;;;;;;;;13.10;99.90;;;;;;4978247;28;19918;-78
2022/09/16 03:49:26;;;;;;;;;;;13.10;99.90;;;;;;4975237;28;20397;-78
2022/09/16 03:51:51;;;;;;;;;;;13.10;99.90;;;;;;4978025;28;19949;-78
2022/09/16 03:54:17;;;;;;;;;;;13.20;99.90;;;;;;4978902;28;19929;-79
2022/09/16 03:56:43;;;;;;;;;;;13.20;99.90;;;;;;4993346;28;19914;-78
2022/09/16 03:59:08;;;;;;;;;;;13.20;99.90;;;;;;4976410;28;19992;-77
2022/09/16 04:01:34;;;;;;;;;;;13.20;99.90;;;;;;4991962;28;19925;-77
2022/09/16 04:03:59;;;;;;;;;;;13.30;99.90;;;;;;4978764;28;19914;-78
2022/09/16 04:06:25;;;;;;;;;;;13.30;99.90;;;;;;4976483;28;19921;-78
2022/09/16 04:08:50;;;;;;;;;;;13.30;99.90;;;;;;4981959;28;20363;-78
2022/09/16 04:11:16;;;;;;;;;;;13.30;99.90;;;;;;4978082;28;20013;-78
2022/09/16 04:13:42;;;;;;;;;;;13.30;99.90;;;;;;4977132;28;19922;-77
2022/09/16 04:16:07;;;;;;;;;;;13.30;99.90;;;;;;4979416;28;20288;-78
2022/09/16 04:18:33;;;;;;;;;;;13.30;99.90;;;;;;4979542;28;19961;-79
2022/09/16 04:21:00;;;;;;;;;;;13.30;99.90;;;;;;4979385;28;20363;-78
2022/09/16 04:23:26;;;;;;;;;;;13.40;99.90;;;;;;4976353;28;20422;-78
2022/09/16 04:25:53;;;;;;;;;;;13.30;99.90;;;;;;4976064;28;19915;-77
2022/09/16 04:28:18;;;;;;;;;;;13.30;99.90;;;;;;4978297;28;19910;-78
2022/09/16 04:30:44;;;;;;;;;;;13.30;99.90;;;;;;4996127;28;19953;-78
2022/09/16 04:33:09;;;;;;;;;;;13.40;99.90;;;;;;4988694;28;20355;-77
2022/09/16 04:35:35;;;;;;;;;;;13.30;99.90;;;;;;4971646;28;19917;-77
2022/09/16 04:38:00;;;;;;;;;;;13.40;99.90;;;;;;4972486;28;19961;-77
2022/09/16 04:40:26;;;;;;;;;;;13.40;99.90;;;;;;4977918;28;19949;-77
2022/09/16 04:42:51;;;;;;;;;;;13.40;99.90;;;;;;4969031;28;20326;-76
2022/09/16 04:45:17;;;;;;;;;;;13.40;99.90;;;;;;4969542;28;19914;-76
2022/09/16 04:47:43;;;;;;;;;;;13.40;99.90;;;;;;4973584;28;19918;-76
2022/09/16 04:50:09;;;;;;;;;;;13.40;99.90;;;;;;4971326;28;19960;-70
2022/09/16 04:52:35;;;;;;;;;;;13.40;99.90;;;;;;4964908;28;19972;-70
2022/09/16 04:55:01;;;;;;;;;;;13.40;99.90;;;;;;4969092;28;19913;-70
2022/09/16 04:57:31;;;;;;;;;;;13.40;99.90;;;;;;4967038;28;20351;-70
2022/09/16 04:59:57;;;;;;;;;;;13.50;99.90;;;;;;4969316;28;20375;-71
2022/09/16 05:02:22;;;;;;;;;;;13.50;99.90;;;;;;4967575;28;19929;-71
2022/09/16 05:04:48;;;;;;;;;;;13.50;99.90;;;;;;4966448;28;19918;-70
2022/09/16 05:07:13;;;;;;;;;;;13.50;99.90;;;;;;4968110;28;19937;-70
2022/09/16 05:09:38;;;;;;;;;;;13.60;99.90;;;;;;4968978;28;19917;-71
2022/09/16 05:12:04;;;;;;;;;;;13.60;99.90;;;;;;4967844;28;19925;-71
2022/09/16 05:14:30;;;;;;;;;;;13.60;99.90;;;;;;4966418;28;19921;-71
2022/09/16 05:16:56;;;;;;;;;;;13.70;99.90;;;;;;4968487;28;19930;-70
2022/09/16 05:19:21;;;;;;;;;;;13.70;99.90;;;;;;4987665;28;19921;-70
2022/09/16 05:21:47;;;;;;;;;;;13.70;99.90;;;;;;4963325;28;20343;-70
2022/09/16 05:24:13;;;;;;;;;;;13.70;99.90;;;;;;4965196;28;19968;-70
2022/09/16 05:26:43;;;;;;;;;;;13.80;99.90;;;;;;4967959;28;20001;-71
2022/09/16 05:29:15;;;;;;;;;;;13.80;99.90;;;;;;4970271;28;19949;-77
2022/09/16 05:31:41;;;;;;;;;;;13.80;99.90;;;;;;4967915;28;19914;-77
2022/09/16 05:34:10;;;;;;;;;;;13.90;99.90;;;;;;4976296;28;19925;-78
2022/09/16 05:36:39;;;;;;;;;;;13.90;99.90;;;;;;4975159;28;19914;-78
2022/09/16 05:39:05;;;;;;;;;;;13.90;99.90;;;;;;4977598;28;19949;-78
2022/09/16 05:41:30;;;;;;;;;;;13.90;99.90;;;;;;4986155;28;19949;-78
2022/09/16 05:44:00;;;;;;;;;;;14.00;99.90;;;;;;5006609;28;19937;-79
2022/09/16 05:46:26;;;;;;;;;;;13.90;99.90;;;;;;4973717;28;21683;-78
2022/09/16 05:48:51;;;;;;;;;;;14.00;99.90;;;;;;4972201;28;20438;-78
2022/09/16 05:51:19;;;;;;;;;;;14.00;99.90;;;;;;4972182;28;19966;-77
2022/09/16 05:53:45;;;;;;;;;;;14.00;99.90;;;;;;4968563;28;20252;-76
2022/09/16 05:56:15;;;;;;;;;;;14.00;99.90;;;;;;4966680;28;19994;-77
2022/09/16 05:58:41;;;;;;;;;;;14.00;99.90;;;;;;4972170;28;19914;-75
2022/09/16 06:01:11;;;;;;;;;;;14.00;99.90;;;;;;4973664;28;20318;-76
2022/09/16 06:03:38;;;;;;;;;;;14.00;99.90;;;;;;4974752;28;19941;-78
2022/09/16 06:06:04;;;;;;;;;;;14.10;99.90;;;;;;4969785;28;19914;-78
2022/09/16 06:08:31;;;;;;;;;;;14.00;99.90;;;;;;4975721;28;19914;-78
2022/09/16 06:10:59;;;;;;;;;;;14.00;99.90;;;;;;4976248;28;19921;-79
2022/09/16 06:13:24;;;;;;;;;;;14.00;99.90;;;;;;4977637;28;19948;-80
2022/09/16 06:15:52;;;;;;;;;;;14.00;99.90;;;;;;4983673;28;19919;-77
2022/09/16 06:18:18;;;;;;;;;;;14.00;99.90;;;;;;4972039;28;19914;-77
2022/09/16 06:20:44;;;;;;;;;;;13.90;99.90;;;;;;4987723;28;20040;-77
2022/09/16 06:23:10;;;;;;;;;;;13.90;99.90;;;;;;4971317;28;19953;-76
2022/09/16 06:25:35;;;;;;;;;;;13.90;99.90;;;;;;4986874;28;19956;-76
2022/09/16 06:28:01;;;;;;;;;;;13.80;99.90;;;;;;4968548;28;19914;-77
2022/09/16 06:30:27;;;;;;;;;;;13.80;99.90;;;;;;4967551;28;19921;-76
2022/09/16 06:32:53;;;;;;;;;;;13.70;99.90;;;;;;4969376;28;20418;-76
2022/09/16 06:35:18;;;;;;;;;;;13.70;99.90;;;;;;4970126;28;20362;-76
2022/09/16 06:37:44;;;;;;;;;;;13.60;99.90;;;;;;4971849;28;19945;-76
2022/09/16 06:40:09;;;;;;;;;;;13.60;99.90;;;;;;4968554;28;20181;-76
2022/09/16 06:42:35;;;;;;;;;;;13.50;99.90;;;;;;4968375;28;19969;-77
2022/09/16 06:45:03;;;;;;;;;;;13.50;99.90;;;;;;4969265;28;20035;-76
2022/09/16 06:47:29;;;;;;;;;;;13.40;99.90;;;;;;4970294;28;20440;-76
2022/09/16 06:49:54;;;;;;;;;;;13.40;99.90;;;;;;4976018;28;19958;-79
2022/09/16 06:52:20;;;;;;;;;;;13.40;99.90;;;;;;4992441;28;20013;-79
2022/09/16 06:54:46;;;;;;;;;;;13.30;99.90;;;;;;4979948;28;19910;-79
2022/09/16 06:57:12;;;;;;;;;;;13.30;99.90;;;;;;4975735;28;19921;-78
2022/09/16 06:59:37;;;;;;;;;;;13.30;99.90;;;;;;4990298;28;20668;-79
2022/09/16 07:02:03;;;;;;;;;;;13.30;99.90;;;;;;4973466;28;19921;-78
2022/09/16 07:04:28;;;;;;;;;;;13.30;99.90;;;;;;4973687;28;19914;-78
2022/09/16 07:06:56;;;;;;;;;;;13.30;99.90;;;;;;4974128;28;19942;-78
2022/09/16 07:09:22;;;;;;;;;;;13.20;99.90;;;;;;4976367;28;19921;-78
2022/09/16 07:11:48;;;;;;;;;;;13.20;99.90;;;;;;4977495;28;19984;-77
2022/09/16 07:14:13;;;;;;;;;;;13.10;99.90;;;;;;4977299;28;19918;-78
2022/09/16 07:16:39;;;;;;;;;;;13.10;99.90;;;;;;4981565;28;20278;-78
2022/09/16 07:19:04;;;;;;;;;;;13.10;99.90;;;;;;4981353;28;19918;-78
2022/09/16 07:21:30;;;;;;;;;;;13.00;99.90;;;;;;4978366;28;19914;-78
2022/09/16 07:23:59;;;;;;;;;;;13.00;99.90;;;;;;4996980;28;19930;-78
2022/09/16 07:26:29;;;;;;;;;;;12.90;99.90;;;;;;4983818;28;19918;-77
2022/09/16 07:28:57;;;;;;;;;;;12.90;99.90;;;;;;4983236;28;19964;-79
2022/09/16 07:31:24;;;;;;;;;;;12.90;99.90;;;;;;4975204;28;19922;-78
2022/09/16 07:33:50;;;;;;;;;;;12.90;99.90;;;;;;4995558;28;19918;-78
2022/09/16 07:36:18;;;;;;;;;;;12.80;99.90;;;;;;4983623;28;19922;-79
2022/09/16 07:38:43;;;;;;;;;;;12.80;99.90;;;;;;4982133;28;19918;-79
2022/09/16 07:41:24;;;;;;;;;;;12.80;99.90;;;;;;4981090;28;19941;-78
2022/09/16 07:43:50;;;;;;;;;;;12.80;99.90;;;;;;4984618;28;19918;-79
2022/09/16 07:46:17;;;;;;;;;;;12.60;99.90;;;;;;4979771;28;20271;-78
2022/09/16 07:48:44;;;;;;;;;;;12.60;99.90;;;;;;4981943;28;19914;-79
2022/09/16 07:51:10;;;;;;;;;;;12.60;99.90;;;;;;4986229;28;19914;-79
2022/09/16 07:53:36;;;;;;;;;;;12.60;99.90;;;;;;4979753;28;20423;-77
2022/09/16 07:56:03;;;;;;;;;;;12.60;99.90;;;;;;5000604;28;19920;-78
2022/09/16 07:58:29;;;;;;;;;;;12.60;99.90;;;;;;4986028;28;19946;-79
2022/09/16 08:00:54;;;;;;;;;;;12.60;99.90;;;;;;4980606;28;19918;-77
2022/09/16 08:03:20;;;;;;;;;;;12.60;99.90;;;;;;4979270;28;19945;-79
2022/09/16 08:05:45;;;;;;;;;;;12.60;99.90;;;;;;4982554;28;19975;-79
2022/09/16 08:08:11;;;;;;;;;;;12.60;99.90;;;;;;4981943;28;19929;-79
2022/09/16 08:10:37;;;;;;;;;;;12.60;99.90;;;;;;5001032;28;19914;-79
2022/09/16 08:13:03;;;;;;;;;;;12.60;99.90;;;;;;4983544;28;19918;-79
2022/09/16 08:15:28;;;;;;;;;;;12.50;99.90;;;;;;4981682;28;19922;-79
2022/09/16 08:17:54;;;;;;;;;;;12.50;99.90;;;;;;4985253;28;19928;-78
2022/09/16 08:20:19;;;;;;;;;;;12.50;99.90;;;;;;4983438;28;19937;-78
2022/09/16 08:22:45;;;;;;;;;;;12.50;99.90;;;;;;4994267;28;19915;-78
2022/09/16 08:25:10;;;;;;;;;;;12.40;99.90;;;;;;4996188;28;19914;-79
2022/09/16 08:27:36;;;;;;;;;;;12.40;99.90;;;;;;4979744;28;19914;-78
2022/09/16 08:30:02;;;;;;;;;;;12.40;99.90;;;;;;4996322;28;19981;-78
2022/09/16 08:32:28;;;;;;;;;;;12.40;99.90;;;;;;4982633;28;19918;-79
2022/09/16 08:34:53;;;;;;;;;;;12.40;99.90;;;;;;4999048;28;19944;-80
2022/09/16 08:37:19;;;;;;;;;;;12.40;99.90;;;;;;4995966;28;20194;-79
2022/09/16 08:39:47;;;;;;;;;;;12.40;99.90;;;;;;4984035;28;19906;-78
2022/09/16 08:42:40;;;;;;;;;;;12.40;99.90;;;;;;4982626;28;19914;-79
2022/09/16 08:45:13;;;;;;;;;;;12.30;99.90;;;;;;4980650;28;19973;-78
2022/09/16 08:47:50;;;;;;;;;;;12.40;99.90;;;;;;4977641;23;19941;-76
2022/09/16 08:50:18;;;;;;;;;;;12.40;99.90;;;;;;4949444;28;20024;-76
2022/09/16 08:52:44;;;;;;;;;;;12.50;99.90;;;;;;4951020;28;20004;-76
2022/09/16 08:55:20;;;;;;;;;;;12.50;99.90;;;;;;4954209;28;19922;-78
2022/09/16 08:58:06;;;;;;;;;;;12.60;99.90;;;;;;4950546;28;20001;-77
2022/09/16 09:00:32;;;;;;;;;;;12.60;99.90;;;;;;4946727;28;20279;-77
2022/09/16 09:03:06;;;;;;;;;;;12.70;99.90;;;;;;4950002;28;19973;-77
2022/09/16 09:05:47;;;;;;;;;;;12.70;99.90;;;;;;4950057;28;19922;-77
2022/09/16 09:08:21;;;;;;;;;;;12.70;99.90;;;;;;4949939;28;19918;-77
2022/09/16 09:10:47;;;;;;;;;;;12.70;99.90;;;;;;4950420;28;20306;-77
2022/09/16 09:13:12;;;;;;;;;;;12.80;99.90;;;;;;4947598;28;19919;-77
2022/09/16 09:15:47;;;;;;;;;;;12.80;99.90;;;;;;4966317;28;20363;-77
2022/09/16 09:18:23;;;;;;;;;;;12.80;99.90;;;;;;4952226;28;19923;-77
2022/09/16 09:21:01;;;;;;;;;;;12.90;99.90;;;;;;4948293;28;19914;-77
2022/09/16 09:23:26;;;;;;;;;;;13.00;99.90;;;;;;4948990;28;20272;-77
2022/09/16 09:26:03;;;;;;;;;;;13.10;99.90;;;;;;4944634;28;19926;-77
2022/09/16 09:28:31;;;;;;;;;;;13.10;99.90;;;;;;4949947;28;20376;-77
2022/09/16 09:30:57;;;;;;;;;;;13.20;99.90;;;;;;4949380;28;20474;-77
2022/09/16 09:33:28;;;;;;;;;;;13.20;99.90;;;;;;4948868;28;19919;-75
2022/09/16 09:35:54;;;;;;;;;;;13.20;99.90;;;;;;4963637;28;19981;-76
2022/09/16 09:38:22;;;;;;;;;;;13.20;99.90;;;;;;4952161;28;19958;-77
2022/09/16 09:40:51;;;;;;;;;;;13.30;99.90;;;;;;4951744;28;19919;-77
2022/09/16 09:43:18;;;;;;;;;;;13.20;99.90;;;;;;4963547;28;19918;-77
2022/09/16 09:45:55;;;;;;;;;;;13.20;99.90;;;;;;4957222;28;19921;-76
2022/09/16 09:48:23;;;;;;;;;;;13.20;99.90;;;;;;4960337;28;20391;-76
2022/09/16 09:50:49;;;;;;;;;;;13.20;99.90;;;;;;4974968;28;19915;-76
2022/09/16 09:53:27;;;;;;;;;;;13.20;99.90;;;;;;4958196;28;19918;-76
2022/09/16 09:55:57;;;;;;;;;;;13.30;99.90;;;;;;4946195;28;19925;-76
2022/09/16 09:58:34;;;;;;;;;;;13.30;99.90;;;;;;4944387;28;20398;-75
2022/09/16 10:01:00;;;;;;;;;;;13.30;99.90;;;;;;4951630;28;19919;-75
2022/09/16 10:03:26;;;;;;;;;;;13.30;99.90;;;;;;4953820;28;19921;-75
2022/09/16 10:05:52;;;;;;;;;;;13.40;99.90;;;;;;4951806;28;20279;-76
2022/09/16 10:08:29;;;;;;;;;;;13.40;99.90;;;;;;4944955;28;20009;-76
2022/09/16 10:10:59;;;;;;;;;;;13.50;99.90;;;;;;4953206;28;20368;-76
2022/09/16 10:13:25;;;;;;;;;;;13.50;99.90;;;;;;4953108;28;19918;-76
2022/09/16 10:16:05;;;;;;;;;;;13.60;99.90;;;;;;4950835;28;19954;-77
2022/09/16 10:18:32;;;;;;;;;;;13.70;99.90;;;;;;4955777;28;20368;-76
2022/09/16 10:21:09;;;;;;;;;;;13.80;99.90;;;;;;4950764;28;19973;-76
2022/09/16 10:23:34;;;;;;;;;;;14.00;99.90;;;;;;4951751;28;20346;-76
2022/09/16 10:26:18;;;;;;;;;;;14.10;99.90;;;;;;4955128;28;20053;-77
2022/09/16 10:28:57;;;;;;;;;;;14.20;99.90;;;;;;4954416;29;19918;-75
2022/09/16 10:31:24;;;;;;;;;;;14.30;99.90;;;;;;4945418;28;19932;-75
2022/09/16 10:33:49;;;;;;;;;;;14.30;99.90;;;;;;4954512;29;19922;-76
2022/09/16 10:36:19;;;;;;;;;;;14.40;99.90;;;;;;4954224;28;19918;-76
2022/09/16 10:38:51;;;;;;;;;;;14.50;99.90;;;;;;4956869;28;19921;-77
2022/09/16 10:41:20;;;;;;;;;;;14.60;99.90;;;;;;4944474;28;19921;-76
2022/09/16 10:43:47;;;;;;;;;;;14.70;99.90;;;;;;4952877;28;19914;-77
2022/09/16 10:46:14;;;;;;;;;;;14.80;99.90;;;;;;4948267;28;19915;-74
2022/09/16 10:48:40;;;;;;;;;;;14.90;99.90;;;;;;4953560;28;19929;-74
2022/09/16 10:51:18;;;;;;;;;;;14.90;99.90;;;;;;4955452;28;19918;-72
2022/09/16 10:53:50;;;;;;;;;;;14.80;99.90;;;;;;4957916;28;19923;-75
2022/09/16 10:56:17;;;;;;;;;;;14.80;99.90;;;;;;4955526;28;20295;-76
2022/09/16 10:58:42;;;;;;;;;;;14.70;99.90;;;;;;4955407;28;19914;-76
2022/09/16 11:01:11;;;;;;;;;;;14.70;99.90;;;;;;4958085;28;20385;-77
2022/09/16 11:03:57;;;;;;;;;;;14.70;99.90;;;;;;4955618;28;19961;-76
2022/09/16 11:06:41;;;;;;;;;;;14.70;99.90;;;;;;4935038;28;19914;-76
2022/09/16 11:09:16;;;;;;;;;;;14.70;99.90;;;;;;4951142;28;19937;-76
2022/09/16 11:11:42;;;;;;;;;;;14.70;99.90;;;;;;4955160;28;19915;-77
2022/09/16 11:14:10;;;;;;;;;;;14.80;99.90;;;;;;4958636;28;19982;-76
2022/09/16 11:16:51;;;;;;;;;;;14.80;99.90;;;;;;4955669;28;19914;-75
2022/09/16 11:19:46;;;;;;;;;;;14.80;99.90;;;;;;4958071;28;19915;-77
2022/09/16 11:22:14;;;;;;;;;;;14.90;99.90;;;;;;4934687;29;20648;-77
2022/09/16 11:24:48;;;;;;;;;;;14.80;99.90;;;;;;4954688;28;20012;-76
2022/09/16 11:27:16;;;;;;;;;;;14.80;99.90;;;;;;4950807;28;19922;-76
2022/09/16 11:29:45;;;;;;;;;;;14.80;99.90;;;;;;4957326;28;20002;-77
2022/09/16 11:32:29;;;;;;;;;;;14.80;99.90;;;;;;4955310;28;20523;-77
2022/09/16 11:34:55;;;;;;;;;;;14.80;99.90;;;;;;4953959;28;20000;-78
2022/09/16 11:37:23;;;;;;;;;;;14.80;99.90;;;;;;4963794;28;21617;-77
2022/09/16 11:40:07;;;;;;;;;;;14.80;99.90;;;;;;4958358;28;20001;-74
2022/09/16 11:42:33;;;;;;;;;;;14.90;99.90;;;;;;4952452;28;19922;-76
2022/09/16 11:44:59;;;;;;;;;;;14.90;99.90;;;;;;4965506;28;19925;-74
2022/09/16 11:47:24;;;;;;;;;;;14.90;99.90;;;;;;4955943;28;19934;-75
2022/09/16 11:50:02;;;;;;;;;;;15.00;99.90;;;;;;4955551;28;19915;-76
2022/09/16 11:52:46;;;;;;;;;;;15.10;99.90;;;;;;4954894;28;19914;-76
2022/09/16 11:55:41;;;;;;;;;;;15.20;99.90;;;;;;4953225;28;19918;-78
2022/09/16 11:58:14;;;;;;;;;;;15.30;99.90;;;;;;4945434;28;19915;-76
2022/09/16 12:00:40;;;;;;;;;;;15.30;99.90;;;;;;4955591;28;20013;-77
2022/09/16 12:03:08;;;;;;;;;;;15.40;99.90;;;;;;4954773;28;19925;-77
2022/09/16 12:05:52;;;;;;;;;;;15.40;99.90;;;;;;4954785;28;19995;-78
2022/09/16 12:08:24;;;;;;;;;;;15.40;99.90;;;;;;4955305;28;20005;-77
2022/09/16 12:11:01;;;;;;;;;;;15.40;99.90;;;;;;4954645;28;19926;-77
2022/09/16 12:13:36;;;;;;;;;;;15.50;99.90;;;;;;4960723;28;19919;-76
2022/09/16 12:16:04;;;;;;;;;;;15.50;99.90;;;;;;4953474;28;19922;-77
2022/09/16 12:18:49;;;;;;;;;;;15.50;99.90;;;;;;4955104;28;20302;-75
2022/09/16 12:21:19;;;;;;;;;;;15.60;99.90;;;;;;4968535;28;19942;-76
2022/09/16 12:23:48;;;;;;;;;;;15.60;99.90;;;;;;4951529;28;20013;-77
2022/09/16 12:26:17;;;;;;;;;;;15.70;99.90;;;;;;4956093;28;20379;-77
2022/09/16 12:28:54;;;;;;;;;;;15.70;99.90;;;;;;4953687;28;19919;-76
2022/09/16 12:31:29;;;;;;;;;;;15.70;99.90;;;;;;4951677;28;19918;-76
2022/09/16 12:34:14;;;;;;;;;;;15.70;99.90;;;;;;4953915;28;19919;-75
2022/09/16 12:36:42;;;;;;;;;;;15.80;99.90;;;;;;4953327;28;19925;-75
2022/09/16 12:39:09;;;;;;;;;;;15.80;99.90;;;;;;4952033;28;20401;-74
2022/09/16 12:41:47;;;;;;;;;;;15.90;99.90;;;;;;4956338;28;20387;-75
2022/09/16 12:44:18;;;;;;;;;;;15.90;99.90;;;;;;4944689;28;19921;-75
2022/09/16 12:46:59;;;;;;;;;;;15.90;99.90;;;;;;4952975;28;19953;-76
2022/09/16 12:49:39;;;;;;;;;;;15.90;99.90;;;;;;4955043;28;20390;-77
2022/09/16 12:52:25;;;;;;;;;;;15.90;99.90;;;;;;4954615;28;20006;-77
2022/09/16 12:54:58;;;;;;;;;;;16.00;99.90;;;;;;4941307;28;20040;-74
2022/09/16 12:57:33;;;;;;;;;;;15.90;99.90;;;;;;4967400;28;19914;-78
2022/09/16 13:00:06;;;;;;;;;;;15.90;99.90;;;;;;4954228;28;19964;-76
2022/09/16 13:02:34;;;;;;;;;;;15.90;99.90;;;;;;4950364;28;19914;-75
2022/09/16 13:05:10;;;;;;;;;;;15.80;99.90;;;;;;4953498;29;19919;-75
2022/09/16 13:07:36;;;;;;;;;;;15.80;99.90;;;;;;4954529;28;19957;-74
2022/09/16 13:10:03;;;;;;;;;;;15.80;99.90;;;;;;4955889;28;19950;-75
2022/09/16 13:12:28;;;;;;;;;;;15.70;99.90;;;;;;4949254;28;19970;-76
2022/09/16 13:14:58;;;;;;;;;;;15.70;99.90;;;;;;4949123;28;20351;-75
2022/09/16 13:17:28;;;;;;;;;;;15.70;99.90;;;;;;4952983;28;19930;-76
2022/09/16 13:19:56;;;;;;;;;;;15.70;99.90;;;;;;4950284;28;20295;-75
2022/09/16 13:22:22;;;;;;;;;;;15.70;99.90;;;;;;4967653;28;19938;-76
2022/09/16 13:24:50;;;;;;;;;;;15.60;99.90;;;;;;4949740;28;19914;-76
2022/09/16 13:27:24;;;;;;;;;;;15.60;99.90;;;;;;4953236;28;19915;-75
2022/09/16 13:29:49;;;;;;;;;;;15.60;99.90;;;;;;4954879;28;19965;-76
2022/09/16 13:32:35;;;;;;;;;;;15.60;99.90;;;;;;4954321;28;19961;-75
2022/09/16 13:35:02;;;;;;;;;;;15.70;99.90;;;;;;4950718;28;20014;-75
2022/09/16 13:37:27;;;;;;;;;;;15.80;99.90;;;;;;4947576;28;20407;-75
2022/09/16 13:39:53;;;;;;;;;;;15.90;99.90;;;;;;4955287;28;20001;-76
2022/09/16 13:42:20;;;;;;;;;;;15.90;99.90;;;;;;4954097;28;19961;-75
2022/09/16 13:44:45;;;;;;;;;;;15.90;99.90;;;;;;4950313;28;19929;-75
2022/09/16 13:47:11;;;;;;;;;;;15.80;99.90;;;;;;4947086;28;19919;-75
2022/09/16 13:49:41;;;;;;;;;;;15.70;99.90;;;;;;4949775;28;20292;-75
2022/09/16 13:52:30;;;;;;;;;;;15.70;99.90;;;;;;4969521;28;19919;-76
2022/09/16 13:55:00;;;;;;;;;;;15.70;99.90;;;;;;4940125;28;19918;-75
2022/09/16 13:57:26;;;;;;;;;;;15.80;99.90;;;;;;4960489;28;20435;-74
2022/09/16 14:00:10;;;;;;;;;;;15.90;99.90;;;;;;4944292;28;20013;-76
2022/09/16 14:02:38;;;;;;;;;;;16.00;99.90;;;;;;4953604;28;20339;-76
2022/09/16 14:05:04;;;;;;;;;;;16.10;99.90;;;;;;4949341;28;19949;-76
2022/09/16 14:07:29;;;;;;;;;;;16.20;99.90;;;;;;4958102;28;20005;-76
2022/09/16 14:09:58;;;;;;;;;;;16.30;99.90;;;;;;4949677;28;20300;-76
2022/09/16 14:12:28;;;;;;;;;;;16.30;99.90;;;;;;4950378;28;19922;-76
2022/09/16 14:14:56;;;;;;;;;;;16.40;99.90;;;;;;4949963;28;20292;-76
2022/09/16 14:17:23;;;;;;;;;;;16.40;99.90;;;;;;4952497;28;19918;-76
2022/09/16 14:19:52;;;;;;;;;;;16.30;99.90;;;;;;4951355;28;19926;-77
2022/09/16 14:22:21;;;;;;;;;;;16.40;99.90;;;;;;4947368;28;20367;-75
2022/09/16 14:24:47;;;;;;;;;;;16.30;99.90;;;;;;4950832;28;20447;-76
2022/09/16 14:27:25;;;;;;;;;;;16.40;99.90;;;;;;4969577;28;19914;-76
2022/09/16 14:29:58;;;;;;;;;;;16.40;99.90;;;;;;4948398;28;20375;-76
2022/09/16 14:32:25;;;;;;;;;;;16.40;99.90;;;;;;4946090;28;19919;-75